createdAt,value
2022-09-02T00:00:41.912Z,46.94
2022-09-02T00:03:08.393Z,46.58
2022-09-02T00:05:34.837Z,46.59
2022-09-02T00:08:01.241Z,46.64
2022-09-02T00:10:30.382Z,47.44
2022-09-02T00:12:56.713Z,47.43
2022-09-02T00:15:23.068Z,47.22
2022-09-02T00:17:49.403Z,47.64
2022-09-02T00:20:18.242Z,47.63
2022-09-02T00:22:44.619Z,48.19
2022-09-02T00:25:11.044Z,48.16
2022-09-02T00:27:37.407Z,48.77
2022-09-02T00:30:03.805Z,48.97
2022-09-02T00:32:30.151Z,48.75
2022-09-02T00:34:56.474Z,47.95
2022-09-02T00:37:23.094Z,48.80
2022-09-02T00:39:49.466Z,48.63
2022-09-02T00:42:15.888Z,48.17
2022-09-02T00:44:45.050Z,48.16
2022-09-02T00:47:11.453Z,48.36
2022-09-02T00:49:37.830Z,48.82
2022-09-02T00:52:04.202Z,48.48
2022-09-02T00:54:30.582Z,49.42
2022-09-02T00:56:56.949Z,49.45
2022-09-02T00:59:26.124Z,48.74
2022-09-02T01:01:52.576Z,49.18
2022-09-02T01:04:18.996Z,48.66
2022-09-02T01:06:45.370Z,49.72
2022-09-02T01:09:11.782Z,48.67
2022-09-02T01:11:38.182Z,49.38
2022-09-02T01:14:04.605Z,48.97
2022-09-02T01:16:31.018Z,48.44
2022-09-02T01:18:57.412Z,48.82
2022-09-02T01:21:23.786Z,48.61
2022-09-02T01:23:50.152Z,48.51
2022-09-02T01:26:17.495Z,48.95
2022-09-02T01:28:43.839Z,48.74
2022-09-02T01:31:10.270Z,48.56
2022-09-02T01:33:36.716Z,48.80
2022-09-02T01:36:03.078Z,48.76
2022-09-02T01:38:29.450Z,49.49
2022-09-02T01:40:55.800Z,49.58
2022-09-02T01:43:22.331Z,49.75
2022-09-02T01:45:48.746Z,49.49
2022-09-02T01:48:16.085Z,50.00
2022-09-02T01:50:47.947Z,49.23
2022-09-02T01:53:14.399Z,49.40
2022-09-02T01:55:40.899Z,49.60
2022-09-02T01:58:07.298Z,49.97
2022-09-02T02:00:33.731Z,49.88
2022-09-02T02:03:00.105Z,50.25
2022-09-02T02:05:26.732Z,50.42
2022-09-02T02:07:53.100Z,50.68
2022-09-02T02:10:19.483Z,50.76
2022-09-02T02:12:45.893Z,50.94
2022-09-02T02:15:12.295Z,51.07
2022-09-02T02:17:38.679Z,50.60
2022-09-02T02:20:05.046Z,50.15
2022-09-02T02:22:31.438Z,49.97
2022-09-02T02:24:57.880Z,50.36
2022-09-02T02:27:24.320Z,50.68
2022-09-02T02:29:50.702Z,50.52
2022-09-02T02:32:20.144Z,50.43
2022-09-02T02:34:46.536Z,50.83
2022-09-02T02:37:12.898Z,50.69
2022-09-02T02:39:39.277Z,50.40
2022-09-02T02:42:05.664Z,50.54
2022-09-02T02:44:32.050Z,50.62
2022-09-02T02:46:58.454Z,50.87
2022-09-02T02:49:24.879Z,51.15
2022-09-02T02:51:51.264Z,50.75
2022-09-02T02:54:17.632Z,50.50
2022-09-02T02:56:44.002Z,50.70
2022-09-02T02:59:10.373Z,50.03
2022-09-02T03:01:36.916Z,50.71
2022-09-02T03:04:03.341Z,51.19
2022-09-02T03:06:29.705Z,50.90
2022-09-02T03:08:56.072Z,51.27
2022-09-02T03:11:22.475Z,51.24
2022-09-02T03:13:48.855Z,50.56
2022-09-02T03:16:15.335Z,50.65
2022-09-02T03:18:41.764Z,50.59
2022-09-02T03:21:08.134Z,51.22
2022-09-02T03:23:38.465Z,51.17
2022-09-02T03:26:04.855Z,51.61
2022-09-02T03:28:31.220Z,51.94
2022-09-02T03:30:57.638Z,51.66
2022-09-02T03:33:24.037Z,52.30
2022-09-02T03:35:50.412Z,51.56
2022-09-02T03:38:16.800Z,51.19
2022-09-02T03:40:43.273Z,51.72
2022-09-02T03:43:09.706Z,50.72
2022-09-02T03:45:36.128Z,50.64
2022-09-02T03:48:05.318Z,51.50
2022-09-02T03:50:34.467Z,50.77
2022-09-02T03:53:00.832Z,51.04
2022-09-02T03:55:29.955Z,50.83
2022-09-02T03:57:57.088Z,50.53
2022-09-02T04:00:26.413Z,51.32
2022-09-02T04:02:52.780Z,51.31
2022-09-02T04:05:19.172Z,51.30
2022-09-02T04:07:47.142Z,50.85
2022-09-02T04:10:13.595Z,51.10
2022-09-02T04:12:39.968Z,51.41
2022-09-02T04:15:06.402Z,50.29
2022-09-02T04:17:32.742Z,50.53
2022-09-02T04:19:59.062Z,50.99
2022-09-02T04:22:28.525Z,50.57
2022-09-02T04:24:54.866Z,50.70
2022-09-02T04:27:24.022Z,50.86
2022-09-02T04:29:50.371Z,50.80
2022-09-02T04:32:16.727Z,50.92
2022-09-02T04:34:43.073Z,50.92
2022-09-02T04:37:09.502Z,50.89
2022-09-02T04:39:35.852Z,50.80
2022-09-02T04:42:02.204Z,50.11
2022-09-02T04:44:28.570Z,50.38
2022-09-02T04:46:54.894Z,50.25
2022-09-02T04:49:21.264Z,50.02
2022-09-02T04:51:47.619Z,50.03
2022-09-02T04:54:13.994Z,50.84
2022-09-02T04:56:40.349Z,49.32
2022-09-02T04:59:06.723Z,49.68
2022-09-02T05:01:33.166Z,50.76
2022-09-02T05:03:59.678Z,50.06
2022-09-02T05:06:26.266Z,49.57
2022-09-02T05:08:52.653Z,49.36
2022-09-02T05:11:19.017Z,49.68
2022-09-02T05:13:45.401Z,49.21
2022-09-02T05:16:11.807Z,49.29
2022-09-02T05:18:38.177Z,50.60
2022-09-02T05:21:04.552Z,49.18
2022-09-02T05:23:30.895Z,48.68
2022-09-02T05:25:57.257Z,49.68
2022-09-02T05:28:23.620Z,49.70
2022-09-02T05:30:50.029Z,49.69
2022-09-02T05:33:16.413Z,49.06
2022-09-02T05:35:45.450Z,49.33
2022-09-02T05:38:12.339Z,48.83
2022-09-02T05:40:38.759Z,49.02
2022-09-02T05:43:05.198Z,49.55
2022-09-02T05:45:31.537Z,48.90
2022-09-02T05:47:57.981Z,49.79
2022-09-02T05:50:24.359Z,49.64
2022-09-02T05:52:50.753Z,49.16
2022-09-02T05:55:17.309Z,49.04
2022-09-02T05:57:43.670Z,49.47
2022-09-02T06:00:10.139Z,49.00
2022-09-02T06:02:36.607Z,48.96
2022-09-02T06:05:02.972Z,49.32
2022-09-02T06:07:29.389Z,48.76
2022-09-02T06:09:55.766Z,49.34
2022-09-02T06:12:22.148Z,48.87
2022-09-02T06:14:48.511Z,48.54
2022-09-02T06:17:14.893Z,48.54
2022-09-02T06:19:41.282Z,48.63
2022-09-02T06:22:08.813Z,48.71
2022-09-02T06:24:37.775Z,48.57
2022-09-02T06:27:04.158Z,48.48
2022-09-02T06:29:30.516Z,48.97
2022-09-02T06:31:56.876Z,48.88
2022-09-02T06:34:23.234Z,49.06
2022-09-02T06:36:49.576Z,49.22
2022-09-02T06:39:16.119Z,48.90
2022-09-02T06:41:42.491Z,48.89
2022-09-02T06:44:08.895Z,49.09
2022-09-02T06:46:35.778Z,48.83
2022-09-02T06:49:02.150Z,48.82
2022-09-02T06:51:28.561Z,49.03
2022-09-02T06:53:54.910Z,49.44
2022-09-02T06:56:21.782Z,49.53
2022-09-02T06:58:48.120Z,49.25
2022-09-02T07:01:14.548Z,49.71
2022-09-02T07:03:40.907Z,49.36
2022-09-02T07:06:07.232Z,49.36
2022-09-02T07:08:33.590Z,49.27
2022-09-02T07:11:02.714Z,49.21
2022-09-02T07:13:29.082Z,49.33
2022-09-02T07:15:55.438Z,48.95
2022-09-02T07:18:21.800Z,49.71
2022-09-02T07:20:50.935Z,49.36
2022-09-02T07:23:17.335Z,49.35
2022-09-02T07:25:43.674Z,49.40
2022-09-02T07:28:10.017Z,49.25
2022-09-02T07:30:39.177Z,48.62
2022-09-02T07:33:05.601Z,48.67
2022-09-02T07:35:34.739Z,48.49
2022-09-02T07:38:03.919Z,48.88
2022-09-02T07:40:33.091Z,48.79
2022-09-02T07:43:02.260Z,48.67
2022-09-02T07:45:31.387Z,48.78
2022-09-02T07:47:57.759Z,48.59
2022-09-02T07:50:24.134Z,48.83
2022-09-02T07:52:50.513Z,48.44
2022-09-02T07:55:16.886Z,48.05
2022-09-02T08:00:09.559Z,45.89
2022-09-02T08:02:35.965Z,45.52
2022-09-02T08:05:05.224Z,45.77
2022-09-02T08:07:34.348Z,45.37
2022-09-02T08:10:03.482Z,45.96
2022-09-02T08:12:32.633Z,45.85
2022-09-02T08:15:01.780Z,45.94
2022-09-02T08:17:30.920Z,45.56
2022-09-02T08:19:57.412Z,45.40
2022-09-02T08:22:26.650Z,45.20
2022-09-02T08:24:53.000Z,44.98
2022-09-02T08:27:22.137Z,45.53
2022-09-02T08:29:51.284Z,45.22
2022-09-02T08:32:17.693Z,45.29
2022-09-02T08:34:44.145Z,45.08
2022-09-02T08:37:13.298Z,43.28
2022-09-02T08:39:39.642Z,44.17
2022-09-02T08:42:05.991Z,44.42
2022-09-02T08:44:32.676Z,43.24
2022-09-02T08:46:59.034Z,43.96
2022-09-02T08:49:25.426Z,43.95
2022-09-02T08:51:53.652Z,43.95
2022-09-02T08:54:20.310Z,43.22
2022-09-02T08:56:46.635Z,43.07
2022-09-02T08:59:13.005Z,42.45
2022-09-02T09:01:39.510Z,41.81
2022-09-02T09:04:05.898Z,41.38
2022-09-02T09:06:32.234Z,42.19
2022-09-02T09:08:58.603Z,42.42
2022-09-02T09:11:27.733Z,42.04
2022-09-02T09:13:54.077Z,41.32
2022-09-02T09:16:20.439Z,40.90
2022-09-02T09:18:46.788Z,41.51
2022-09-02T09:21:18.749Z,39.42
2022-09-02T09:23:45.151Z,40.73
2022-09-02T09:26:11.494Z,40.41
2022-09-02T09:28:37.967Z,39.54
2022-09-02T09:31:04.307Z,39.42
2022-09-02T09:33:30.627Z,39.53
2022-09-02T09:35:59.782Z,39.29
2022-09-02T09:38:26.104Z,38.05
2022-09-02T09:40:52.558Z,38.66
2022-09-02T09:43:21.731Z,39.31
2022-09-02T09:45:48.176Z,41.55
2022-09-02T09:48:14.567Z,38.08
2022-09-02T09:50:40.881Z,38.65
2022-09-02T09:53:07.230Z,41.53
2022-09-02T09:55:34.948Z,39.60
2022-09-02T09:58:04.405Z,39.55
2022-09-02T10:00:30.741Z,40.08
2022-09-02T10:02:59.870Z,40.21
2022-09-02T10:05:29.002Z,40.41
2022-09-02T10:07:55.320Z,39.93
2022-09-02T10:10:25.626Z,41.36
2022-09-02T10:12:51.973Z,42.69
2022-09-02T10:15:18.298Z,42.08
2022-09-02T10:17:44.639Z,40.97
2022-09-02T10:20:10.976Z,42.44
2022-09-02T10:22:39.471Z,39.56
2022-09-02T10:25:23.641Z,39.40
2022-09-02T10:27:50.173Z,38.95
2022-09-02T10:30:16.512Z,41.48
2022-09-02T10:32:42.873Z,40.12
2022-09-02T10:35:09.245Z,39.90
2022-09-02T10:37:35.608Z,40.46
2022-09-02T10:40:01.938Z,39.19
2022-09-02T10:42:28.274Z,39.60
2022-09-02T10:44:58.806Z,39.80
2022-09-02T10:47:30.081Z,39.33
2022-09-02T10:49:58.204Z,39.32
2022-09-02T10:52:24.536Z,39.16
2022-09-02T10:54:50.890Z,38.19
2022-09-02T10:57:17.282Z,38.58
2022-09-02T10:59:43.927Z,38.39
2022-09-02T11:02:10.292Z,38.00
2022-09-02T11:04:36.617Z,38.19
2022-09-02T11:07:03.798Z,38.80
2022-09-02T11:09:30.329Z,38.21
2022-09-02T11:12:00.253Z,38.03
2022-09-02T11:14:26.721Z,37.98
2022-09-02T11:16:56.101Z,37.60
2022-09-02T11:19:22.458Z,38.03
2022-09-02T11:21:50.847Z,37.81
2022-09-02T11:24:17.181Z,37.17
2022-09-02T11:26:46.327Z,37.81
2022-09-02T11:29:12.663Z,38.67
2022-09-02T11:31:41.789Z,38.20
2022-09-02T11:34:08.135Z,38.79
2022-09-02T11:36:34.644Z,38.75
2022-09-02T11:39:00.958Z,37.92
2022-09-02T11:41:37.227Z,38.43
2022-09-02T11:44:04.054Z,38.09
2022-09-02T11:46:30.503Z,37.91
2022-09-02T11:48:56.864Z,37.64
2022-09-02T11:51:23.300Z,37.21
2022-09-02T11:53:49.792Z,37.63
2022-09-02T11:56:21.360Z,37.61
2022-09-02T11:58:47.838Z,37.66
2022-09-02T12:01:14.266Z,37.01
2022-09-02T12:04:15.850Z,36.91
2022-09-02T12:06:30.273Z,37.50
2022-09-02T12:08:56.723Z,36.69
2022-09-02T12:11:25.870Z,37.25
2022-09-02T12:13:52.263Z,36.95
2022-09-02T12:16:19.833Z,37.16
2022-09-02T12:18:46.276Z,37.18
2022-09-02T12:21:15.980Z,37.00
2022-09-02T12:23:45.805Z,37.26
2022-09-02T12:26:15.896Z,37.54
2022-09-02T12:28:42.393Z,37.28
2022-09-02T12:31:08.762Z,37.34
2022-09-02T12:33:38.191Z,37.70
2022-09-02T12:36:04.537Z,37.71
2022-09-02T12:38:33.771Z,36.54
2022-09-02T12:41:00.357Z,36.97
2022-09-02T12:43:26.776Z,37.02
2022-09-02T12:45:54.408Z,36.52
2022-09-02T12:48:30.238Z,37.11
2022-09-02T12:51:04.710Z,36.90
2022-09-02T12:53:31.052Z,37.22
2022-09-02T12:55:57.396Z,36.13
2022-09-02T12:58:23.836Z,36.21
2022-09-02T13:00:50.398Z,35.95
2022-09-02T13:03:16.735Z,35.28
2022-09-02T13:05:43.043Z,35.69
2022-09-02T13:08:09.405Z,35.52
2022-09-02T13:10:35.724Z,35.85
2022-09-02T13:13:02.057Z,35.43
2022-09-02T13:15:28.381Z,36.34
2022-09-02T13:17:54.761Z,36.42
2022-09-02T13:20:21.105Z,37.30
2022-09-02T13:22:47.438Z,37.22
2022-09-02T13:25:13.832Z,37.54
2022-09-02T13:27:40.182Z,37.82
2022-09-02T13:30:06.550Z,37.61
2022-09-02T13:32:32.889Z,37.54
2022-09-02T13:35:02.039Z,37.87
2022-09-02T13:37:31.272Z,37.61
2022-09-02T13:40:00.499Z,37.26
2022-09-02T13:42:26.832Z,37.30
2022-09-02T13:44:58.356Z,37.18
2022-09-02T13:47:24.684Z,37.56
2022-09-02T13:49:53.832Z,37.61
2022-09-02T13:52:24.010Z,37.87
2022-09-02T13:55:00.925Z,37.33
2022-09-02T13:57:27.268Z,38.03
2022-09-02T13:59:56.814Z,37.25
2022-09-02T14:02:23.287Z,37.65
2022-09-02T14:04:49.744Z,37.84
2022-09-02T14:07:16.106Z,37.21
2022-09-02T14:09:42.431Z,37.53
2022-09-02T14:12:08.820Z,37.79
2022-09-02T14:14:35.160Z,37.52
2022-09-02T14:17:04.308Z,37.67
2022-09-02T14:19:30.634Z,37.98
2022-09-02T14:21:56.955Z,38.29
2022-09-02T14:24:23.295Z,38.59
2022-09-02T14:26:49.619Z,38.50
2022-09-02T14:29:15.963Z,37.89
2022-09-02T14:31:42.286Z,38.56
2022-09-02T14:34:08.806Z,38.57
2022-09-02T14:36:35.147Z,38.24
2022-09-02T14:39:01.490Z,38.34
2022-09-02T14:41:27.830Z,38.29
2022-09-02T14:43:54.163Z,38.33
2022-09-02T14:46:20.556Z,37.83
2022-09-02T14:48:46.918Z,38.61
2022-09-02T14:51:13.274Z,38.44
2022-09-02T14:53:39.611Z,37.95
2022-09-02T14:56:07.191Z,38.23
2022-09-02T14:58:33.528Z,38.23
2022-09-02T15:01:02.766Z,38.39
2022-09-02T15:03:29.169Z,38.30
2022-09-02T15:05:55.501Z,37.84
2022-09-02T15:08:21.932Z,38.14
2022-09-02T15:10:51.162Z,37.81
2022-09-02T15:13:17.521Z,38.40
2022-09-02T15:15:43.950Z,37.94
2022-09-02T15:18:12.425Z,37.55
2022-09-02T15:20:38.727Z,37.57
2022-09-02T15:23:05.267Z,37.65
2022-09-02T15:25:31.615Z,35.92
2022-09-02T15:27:58.009Z,36.18
2022-09-02T15:30:27.154Z,36.30
2022-09-02T15:32:53.495Z,36.00
2022-09-02T15:35:19.864Z,35.78
2022-09-02T15:37:46.211Z,36.39
2022-09-02T15:40:12.594Z,36.27
2022-09-02T15:42:38.915Z,37.15
2022-09-02T15:45:05.290Z,36.32
2022-09-02T15:47:31.630Z,37.23
2022-09-02T15:49:57.965Z,36.44
2022-09-02T15:52:24.291Z,36.65
2022-09-02T15:54:53.565Z,36.15
2022-09-02T15:57:19.897Z,36.03
2022-09-02T15:59:49.020Z,37.08
2022-09-02T16:02:15.409Z,36.98
2022-09-02T16:04:44.544Z,37.51
2022-09-02T16:07:10.897Z,37.06
2022-09-02T16:09:43.334Z,37.23
2022-09-02T16:12:09.697Z,37.11
2022-09-02T16:14:38.839Z,37.00
2022-09-02T16:17:05.272Z,37.21
2022-09-02T16:19:31.616Z,37.39
2022-09-02T16:22:00.760Z,37.38
2022-09-02T16:24:29.918Z,37.54
2022-09-02T16:26:56.251Z,36.90
2022-09-02T16:29:22.571Z,36.89
2022-09-02T16:34:38.028Z,36.20
2022-09-02T16:37:04.381Z,35.96
2022-09-02T16:39:30.834Z,35.82
2022-09-02T16:41:57.285Z,35.88
2022-09-02T16:44:23.641Z,36.26
2022-09-02T16:46:49.976Z,36.15
2022-09-02T16:49:16.314Z,36.04
2022-09-02T16:51:42.652Z,35.46
2022-09-02T16:54:08.998Z,35.78
2022-09-02T16:56:43.912Z,35.21
2022-09-02T16:59:10.253Z,35.89
2022-09-02T17:01:36.618Z,36.18
2022-09-02T17:04:03.026Z,35.96
2022-09-02T17:06:32.181Z,35.40
2022-09-02T17:08:58.510Z,36.51
2022-09-02T17:11:24.852Z,34.85
2022-09-02T17:13:51.202Z,36.71
2022-09-02T17:16:17.596Z,37.34
2022-09-02T17:18:44.034Z,37.12
2022-09-02T17:21:13.163Z,37.29
2022-09-02T17:23:39.548Z,37.49
2022-09-02T17:26:05.906Z,37.29
2022-09-02T17:28:32.269Z,38.26
2022-09-02T17:31:01.472Z,38.31
2022-09-02T17:33:30.670Z,37.95
2022-09-02T17:35:57.024Z,37.88
2022-09-02T17:38:27.361Z,38.08
2022-09-02T17:40:56.577Z,38.41
2022-09-02T17:43:25.712Z,38.06
2022-09-02T17:45:52.106Z,38.04
2022-09-02T17:48:37.043Z,38.29
2022-09-02T17:51:05.801Z,38.67
2022-09-02T17:53:32.171Z,38.71
2022-09-02T17:55:58.508Z,38.57
2022-09-02T17:58:24.872Z,38.88
2022-09-02T18:00:51.255Z,38.61
2022-09-02T18:03:22.008Z,39.01
2022-09-02T18:05:48.712Z,38.48
2022-09-02T18:08:16.123Z,39.22
2022-09-02T18:10:42.535Z,38.91
2022-09-02T18:13:08.965Z,39.17
2022-09-02T18:15:38.119Z,39.23
2022-09-02T18:18:04.511Z,39.80
2022-09-02T18:20:30.873Z,39.92
2022-09-02T18:22:57.271Z,39.79
2022-09-02T18:25:23.660Z,39.95
2022-09-02T18:27:52.330Z,39.37
2022-09-02T18:30:19.891Z,39.55
2022-09-02T18:32:46.253Z,39.63
2022-09-02T18:35:12.640Z,39.50
2022-09-02T18:37:39.029Z,40.05
2022-09-02T18:40:05.469Z,40.07
2022-09-02T18:42:31.869Z,40.14
2022-09-02T18:44:58.255Z,40.47
2022-09-02T18:47:24.680Z,40.80
2022-09-02T18:49:51.068Z,40.39
2022-09-02T18:52:17.456Z,40.72
2022-09-02T18:54:43.855Z,40.60
2022-09-02T18:57:10.223Z,40.57
2022-09-02T18:59:36.578Z,40.84
2022-09-02T19:02:03.046Z,41.29
2022-09-02T19:04:29.763Z,41.08
2022-09-02T19:06:56.161Z,40.87
2022-09-02T19:09:22.565Z,40.60
2022-09-02T19:11:48.957Z,40.89
2022-09-02T19:14:15.340Z,41.36
2022-09-02T19:16:42.616Z,41.16
2022-09-02T19:19:09.906Z,41.02
2022-09-02T19:21:36.308Z,40.93
2022-09-02T19:24:02.695Z,41.27
2022-09-02T19:26:29.067Z,41.03
2022-09-02T19:28:55.456Z,41.24
2022-09-02T19:31:21.946Z,41.37
2022-09-02T19:33:48.415Z,41.46
2022-09-02T19:36:14.791Z,41.10
2022-09-02T19:38:41.190Z,41.00
2022-09-02T19:41:07.556Z,40.83
2022-09-02T19:43:33.913Z,41.14
2022-09-02T19:46:00.351Z,41.00
2022-09-02T19:48:26.804Z,40.78
2022-09-02T19:50:53.170Z,41.40
2022-09-02T19:53:20.429Z,41.46
2022-09-02T19:55:46.802Z,41.25
2022-09-02T19:58:13.266Z,41.24
2022-09-02T20:00:39.687Z,41.02
2022-09-02T20:03:06.121Z,40.66
2022-09-02T20:05:32.530Z,39.91
2022-09-02T20:07:58.916Z,38.69
2022-09-02T20:10:28.074Z,38.25
2022-09-02T20:12:56.239Z,38.61
2022-09-02T20:15:22.691Z,37.89
2022-09-02T20:17:49.065Z,38.24
2022-09-02T20:20:16.500Z,37.59
2022-09-02T20:22:42.870Z,37.82
2022-09-02T20:25:09.242Z,37.71
2022-09-02T20:27:36.801Z,37.83
2022-09-02T20:30:04.103Z,37.90
2022-09-02T20:32:31.402Z,37.86
2022-09-02T20:34:58.839Z,38.08
2022-09-02T20:37:25.303Z,37.41
2022-09-02T20:39:52.640Z,36.38
2022-09-02T20:42:19.050Z,36.52
2022-09-02T20:44:45.437Z,36.24
2022-09-02T20:47:12.664Z,36.80
2022-09-02T20:49:39.948Z,36.41
2022-09-02T20:52:08.190Z,36.15
2022-09-02T20:54:34.569Z,36.75
2022-09-02T20:57:00.953Z,35.88
2022-09-02T20:59:27.338Z,35.37
2022-09-02T21:01:53.791Z,36.25
2022-09-02T21:04:20.205Z,37.11
2022-09-02T21:06:46.565Z,36.65
2022-09-02T21:09:12.947Z,37.19
2022-09-02T21:11:39.341Z,37.01
2022-09-02T21:14:05.744Z,37.23
2022-09-02T21:16:32.208Z,38.81
2022-09-02T21:18:58.623Z,40.10
2022-09-02T21:21:25.009Z,40.61
2022-09-02T21:23:52.479Z,40.91
2022-09-02T21:26:18.939Z,41.62
2022-09-02T21:28:49.642Z,41.73
2022-09-02T21:31:16.041Z,42.22
2022-09-02T21:33:42.442Z,42.20
2022-09-02T21:36:09.689Z,42.49
2022-09-02T21:38:36.076Z,42.41
2022-09-02T21:41:02.444Z,42.51
2022-09-02T21:43:28.880Z,42.36
2022-09-02T21:45:55.239Z,42.27
2022-09-02T21:48:21.617Z,42.75
2022-09-02T21:50:48.015Z,42.54
2022-09-02T21:53:16.503Z,42.58
2022-09-02T21:55:42.883Z,42.98
2022-09-02T21:58:09.285Z,42.72
2022-09-02T22:00:35.697Z,42.68
2022-09-02T22:03:02.071Z,43.04
2022-09-02T22:05:28.440Z,43.53
2022-09-02T22:07:54.822Z,43.08
2022-09-02T22:10:21.183Z,43.65
2022-09-02T22:12:52.026Z,43.00
2022-09-02T22:15:18.850Z,42.81
2022-09-02T22:17:45.228Z,43.38
2022-09-02T22:20:11.575Z,42.82
2022-09-02T22:22:37.951Z,43.29
2022-09-02T22:25:05.266Z,43.58
2022-09-02T22:27:31.645Z,43.26
2022-09-02T22:29:58.023Z,43.49
2022-09-02T22:32:24.441Z,43.14
2022-09-02T22:34:50.789Z,43.42
2022-09-02T22:37:18.028Z,43.81
2022-09-02T22:39:44.459Z,43.49
2022-09-02T22:42:10.969Z,43.28
2022-09-02T22:44:37.315Z,43.22
2022-09-02T22:49:30.021Z,43.50
2022-09-02T22:51:56.418Z,43.96
2022-09-02T22:54:22.793Z,43.98
2022-09-02T22:56:49.145Z,43.75
2022-09-02T22:59:15.555Z,44.18
2022-09-02T23:01:42.072Z,44.11
2022-09-02T23:04:08.485Z,43.61
2022-09-02T23:06:34.904Z,44.55
2022-09-02T23:09:01.272Z,44.23
2022-09-02T23:11:27.679Z,44.06
2022-09-02T23:13:54.041Z,43.23
2022-09-02T23:16:21.385Z,44.09
2022-09-02T23:18:47.769Z,43.47
2022-09-02T23:21:14.999Z,43.48
2022-09-02T23:23:41.392Z,43.53
2022-09-02T23:26:07.759Z,43.66
2022-09-02T23:28:34.164Z,43.95
2022-09-02T23:31:00.648Z,44.03
2022-09-02T23:33:27.068Z,44.12
2022-09-02T23:35:53.453Z,44.05
2022-09-02T23:38:20.725Z,43.78
2022-09-02T23:40:47.086Z,43.89
2022-09-02T23:43:13.452Z,44.46
2022-09-02T23:45:39.834Z,44.14
2022-09-02T23:48:06.229Z,44.48
2022-09-02T23:50:32.597Z,44.20
2022-09-02T23:52:58.981Z,44.05
2022-09-02T23:55:25.366Z,44.57
2022-09-02T23:57:51.738Z,44.47
